Airfield :
LOGIN :

Register | Disclaimer

   EN    FR    IT 

 










Legend :    VFR   Marginal VFR   IFR   Intensive IFR   Very Intensive IFR
Visi :
Ceiling :
>= 8 km
>= 3000ft
5 to 8 km
1000 to 3000 ft
1500m to 5 km
500 to 1000 ft
800 to 1500m
200 to 500 ft
< 800m
< 200 ft
Symbols :   Thunderstorms  Fog  Heavy snow  Heavy precipitations  Wind > 20 kt
SIGMETs :     Misc.  Thunderstorms  Icing  Turbulence  Mountain Waves  Volcanic Ashes






- Airport Elevation : 266 ft
- IATA code : NCL


EGNT - Newcastle

CURRENT METAR :
  • 071050Z 25011KT 9999 BKN015 08/07 Q1006

EXPIRED METARs :
  • 071020Z 25011KT 9999 SCT015 08/07 Q1006
  • 070950Z 25012KT 9999 SCT015 08/06 Q1007
  • 070920Z 26012KT 9999 FEW015 SCT025 07/06 Q1006
  • 070850Z 26012KT 9999 SCT015 SCT025 08/06 Q1006
  • 070820Z 26011KT 9999 SCT010 SCT030 08/07 Q1006

TAF AMD TAF EGNT
Valid from the 07 at 07:00 until the 08 at 06:00 UTC


070733Z 0707/0806 27014KT 9999 SCT015
TEMPO 0707/0712 BKN010
BECMG 0712/0714 20007KT
TEMPO 0712/0722 BKN014
BECMG 0714/0717 22017KT BKN009
TEMPO 0717/0802 22022G35KT SCT009
PROB30
TEMPO 0721/0803 6000 RA
BECMG 0802/0805 SCT025
TEMPO 0802/0806 26020G30KT
PROB30
TEMPO 0803/0806 7000 SHRA
ATIS : +44 191 214 3400



MET'MAP, your aeronautical weather chart ! - Copyright ORBIFLY December 2007 - Disclaimer

ORBIFLY MET'MAP TEAM :

Programming & Development : Alexandra Zaïnal
Concept & original design : Baudouin d'Aumeries
Assistance for programming : Marc-Olivier Méhu
Technical & hardware support : Manuel Goepfert

Contact : metmap@orbifly.com




SOURCES & CREDITS :

   NOAA